Time;durP1;ratioP1;P1;durP2;ratioP2;P2;SDS_P1;SDS_P2;PMS_P1;PMS_P2;Temp;Humidity;BMP_temperature;BMP_pressure;BME280_temperature;BME280_humidity;BME280_pressure;Samples;Min_cycle;Max_cycle;Signal;HPM_P1;HPM_P2
2023/01/08 00:01:42;;;;;;;11.35;6.32;;;;;;;9.68;100.00;100167.25;4982312;28;20029;-81
2023/01/08 00:04:08;;;;;;;16.35;6.32;;;;;;;9.65;100.00;100173.59;4976583;28;20041;-81
2023/01/08 00:06:33;;;;;;;17.02;6.45;;;;;;;9.64;100.00;100166.44;4986532;28;20121;-81
2023/01/08 00:08:58;;;;;;;14.98;6.53;;;;;;;9.60;100.00;100160.00;4984357;28;20554;-81
2023/01/08 00:11:24;;;;;;;12.65;5.65;;;;;;;9.61;100.00;100156.00;4985125;28;20057;-81
2023/01/08 00:13:49;;;;;;;15.95;6.93;;;;;;;9.61;100.00;100158.81;4980871;28;20034;-80
2023/01/08 00:16:16;;;;;;;12.95;6.75;;;;;;;9.60;100.00;100176.78;4985994;28;20121;-81
2023/01/08 00:18:42;;;;;;;12.02;5.90;;;;;;;9.58;100.00;100171.56;4985886;28;20547;-81
2023/01/08 00:21:08;;;;;;;10.75;6.30;;;;;;;9.53;100.00;100183.91;4989691;28;20141;-81
2023/01/08 00:23:34;;;;;;;16.30;7.30;;;;;;;9.44;100.00;100202.97;4987024;28;20134;-81
2023/01/08 00:26:02;;;;;;;16.08;8.48;;;;;;;9.40;100.00;100184.59;4986559;28;20093;-81
2023/01/08 00:28:29;;;;;;;12.52;5.95;;;;;;;9.39;100.00;100194.19;5001848;28;20490;-81
2023/01/08 00:30:54;;;;;;;10.70;6.43;;;;;;;9.29;100.00;100196.47;4988097;28;20073;-80
2023/01/08 00:33:20;;;;;;;11.90;6.03;;;;;;;9.31;100.00;100210.06;4987420;28;20124;-81
2023/01/08 00:35:46;;;;;;;9.70;4.60;;;;;;;9.12;100.00;100214.66;4980312;28;20041;-79
2023/01/08 00:38:12;;;;;;;9.65;4.35;;;;;;;9.00;100.00;100195.41;4980746;28;20739;-80
2023/01/08 00:40:39;;;;;;;8.63;2.60;;;;;;;8.79;100.00;100189.63;5000460;28;20087;-80
2023/01/08 00:43:05;;;;;;;6.18;1.85;;;;;;;8.66;100.00;100184.28;4996379;28;20026;-80
2023/01/08 00:45:30;;;;;;;6.35;1.65;;;;;;;8.71;100.00;100183.19;4982609;28;20429;-80
2023/01/08 00:47:56;;;;;;;9.48;2.05;;;;;;;8.63;100.00;100176.72;4980537;28;20037;-80
2023/01/08 00:50:21;;;;;;;8.52;3.45;;;;;;;8.69;100.00;100186.34;4979771;28;20034;-80
2023/01/08 00:52:46;;;;;;;8.95;3.13;;;;;;;8.59;100.00;100169.47;4985163;28;20077;-80
2023/01/08 00:55:12;;;;;;;8.15;2.08;;;;;;;8.67;100.00;100171.97;4987671;28;20089;-80
2023/01/08 00:57:38;;;;;;;6.57;1.80;;;;;;;8.57;100.00;100166.28;4995827;28;20032;-80
2023/01/08 01:00:07;;;;;;;13.48;2.58;;;;;;;8.61;100.00;100170.69;4989303;28;20073;-80
2023/01/08 01:02:34;;;;;;;11.57;2.30;;;;;;;8.50;100.00;100161.44;4986954;28;20022;-80
2023/01/08 01:05:00;;;;;;;11.45;2.05;;;;;;;8.55;100.00;100172.22;4989950;28;20394;-80
2023/01/08 01:07:25;;;;;;;11.65;2.58;;;;;;;8.51;100.00;100174.16;4988589;28;20034;-80
2023/01/08 01:09:50;;;;;;;12.35;3.40;;;;;;;8.51;100.00;100165.81;4993789;28;20077;-79
2023/01/08 01:12:16;;;;;;;20.88;2.08;;;;;;;8.40;100.00;100164.84;4985566;28;20034;-80
2023/01/08 01:14:41;;;;;;;5.05;1.80;;;;;;;8.52;100.00;100159.06;5004390;28;20125;-80
2023/01/08 01:17:06;;;;;;;19.60;2.65;;;;;;;8.56;100.00;100148.75;5003574;28;20034;-80
2023/01/08 01:19:32;;;;;;;8.23;2.72;;;;;;;8.48;100.00;100145.06;4985504;28;20034;-79
2023/01/08 01:21:58;;;;;;;6.70;1.83;;;;;;;8.45;100.00;100148.59;4987487;28;20029;-80
2023/01/08 01:24:24;;;;;;;19.70;3.58;;;;;;;8.52;100.00;100145.09;4995127;28;20037;-80
2023/01/08 01:26:52;;;;;;;21.52;3.65;;;;;;;8.52;100.00;100136.75;4992001;28;20026;-80
2023/01/08 01:29:17;;;;;;;12.88;3.50;;;;;;;8.58;100.00;100138.00;4991921;28;20041;-80
2023/01/08 01:31:43;;;;;;;14.40;2.17;;;;;;;8.38;100.00;100139.34;4988320;28;20023;-80
2023/01/08 01:34:09;;;;;;;21.70;4.68;;;;;;;8.43;100.00;100139.84;4990148;28;20034;-80
2023/01/08 01:36:35;;;;;;;12.80;2.28;;;;;;;8.43;100.00;100150.16;4985889;28;20179;-81
2023/01/08 01:39:03;;;;;;;14.65;3.95;;;;;;;8.45;100.00;100147.81;4997940;28;20391;-80
2023/01/08 01:41:32;;;;;;;12.75;2.75;;;;;;;8.49;100.00;100159.81;4986427;28;20085;-80
2023/01/08 01:44:37;;;;;;;18.40;4.00;;;;;;;8.50;100.00;100156.63;4985609;28;20034;-80
2023/01/08 01:47:30;;;;;;;17.00;3.28;;;;;;;8.51;100.00;100157.44;4981873;28;20034;-80
2023/01/08 01:49:58;;;;;;;;;;;;;;;8.49;100.00;100159.81;4986346;28;20494;-80
2023/01/08 01:52:26;;;;;;;20.40;2.65;;;;;;;8.57;100.00;100160.69;4987133;28;20638;-80
2023/01/08 01:54:52;;;;;;;17.50;2.78;;;;;;;8.51;100.00;100155.44;4989952;28;20060;-80
2023/01/08 01:57:17;;;;;;;20.88;4.28;;;;;;;8.57;100.00;100150.34;4985888;28;20113;-80
2023/01/08 01:59:45;;;;;;;15.85;3.05;;;;;;;8.53;100.00;100138.34;4987081;28;20046;-80
2023/01/08 02:02:11;;;;;;;9.75;2.70;;;;;;;8.48;100.00;100144.28;4997678;28;20026;-80
2023/01/08 02:04:36;;;;;;;6.85;2.22;;;;;;;8.61;100.00;100139.22;4979110;28;20498;-80
2023/01/08 02:07:19;;;;;;;11.43;2.70;;;;;;;8.50;100.00;100130.75;4984241;28;20113;-80
2023/01/08 02:10:06;;;;;;;7.78;2.85;;;;;;;8.35;100.00;100147.28;5001335;28;20046;-80
2023/01/08 02:12:38;;;;;;;5.03;2.20;;;;;;;8.39;100.00;100152.09;5002384;28;20526;-80
2023/01/08 02:15:32;;;;;;;14.23;2.25;;;;;;;8.47;100.00;100151.00;4985346;28;20038;-80
2023/01/08 02:18:17;;;;;;;10.43;3.88;;;;;;;8.52;100.00;100136.75;4979366;28;20092;-80
2023/01/08 02:20:53;;;;;;;17.00;3.13;;;;;;;8.58;100.00;100135.22;5000174;28;20061;-80
2023/01/08 02:24:05;;;;;;;7.07;2.85;;;;;;;8.41;100.00;100141.38;4990971;28;20407;-80
2023/01/08 02:26:32;;;;;;;6.50;2.97;;;;;;;8.48;100.00;100138.69;4980927;28;20041;-80
2023/01/08 02:29:10;;;;;;;13.50;2.70;;;;;;;8.51;100.00;100129.53;4982508;28;20033;-80
2023/01/08 02:31:39;;;;;;;10.90;4.28;;;;;;;8.51;100.00;100135.13;4985354;28;20031;-80
2023/01/08 02:34:05;;;;;;;9.55;3.38;;;;;;;8.43;100.00;100116.69;4983225;28;20030;-80
2023/01/08 02:36:42;;;;;;;9.30;3.20;;;;;;;8.38;100.00;100111.44;4983309;28;20034;-80
2023/01/08 02:39:19;;;;;;;7.80;3.67;;;;;;;8.37;100.00;100112.63;4986954;28;20030;-80
2023/01/08 02:41:50;;;;;;;17.75;4.00;;;;;;;8.45;100.00;100117.13;5001667;28;20056;-80
2023/01/08 02:44:22;;;;;;;9.43;4.30;;;;;;;8.41;100.00;100114.31;4985135;28;20030;-81
2023/01/08 02:46:51;;;;;;;9.88;5.20;;;;;;;8.38;100.00;100103.88;4987629;28;20172;-80
2023/01/08 02:49:21;;;;;;;12.38;4.25;;;;;;;8.44;100.00;100110.75;4985626;28;20522;-80
2023/01/08 02:51:53;;;;;;;11.43;4.57;;;;;;;8.43;100.00;100111.13;4980777;28;20076;-80
2023/01/08 02:54:22;;;;;;;10.80;5.78;;;;;;;8.46;100.00;100107.59;4990164;28;20065;-80
2023/01/08 02:56:59;;;;;;;12.20;4.35;;;;;;;8.58;100.00;100112.06;5001821;28;20372;-80
2023/01/08 02:59:27;;;;;;;11.80;5.85;;;;;;;8.48;100.00;100105.22;4984715;28;20486;-80
2023/01/08 03:01:53;;;;;;;10.18;6.22;;;;;;;8.50;100.00;100100.06;4984300;28;20041;-80
2023/01/08 03:04:21;;;;;;;16.02;6.65;;;;;;;8.43;100.00;100091.59;4988464;28;20034;-80
2023/01/08 03:06:47;;;;;;;16.45;7.40;;;;;;;8.43;100.00;100088.81;4998087;28;20037;-80
2023/01/08 03:09:14;;;;;;;13.75;8.05;;;;;;;8.47;100.00;100082.09;4991677;28;20398;-81
2023/01/08 03:11:48;;;;;;;15.82;6.50;;;;;;;8.52;100.00;100094.91;4997745;28;20031;-80
2023/01/08 03:14:43;;;;;;;12.85;6.05;;;;;;;8.57;100.00;100091.75;4991363;28;20068;-80
2023/01/08 03:17:30;;;;;;;13.48;6.25;;;;;;;8.60;100.00;100092.97;4996407;28;20125;-80
2023/01/08 03:20:01;;;;;;;13.77;6.90;;;;;;;8.62;100.00;100087.81;4990208;28;20569;-80
2023/01/08 03:22:29;;;;;;;16.15;5.63;;;;;;;8.68;100.00;100086.28;4993954;28;20057;-80
2023/01/08 03:24:57;;;;;;;11.30;5.38;;;;;;;8.63;100.00;100092.22;4994774;28;20069;-80
2023/01/08 03:27:28;;;;;;;14.45;5.70;;;;;;;8.73;100.00;100092.31;4989489;28;20026;-80
2023/01/08 03:29:56;;;;;;;12.07;5.80;;;;;;;8.67;100.00;100079.91;5006793;28;20026;-80
2023/01/08 03:32:24;;;;;;;10.30;5.10;;;;;;;8.61;100.00;100089.00;4988597;28;20030;-80
2023/01/08 03:34:53;;;;;;;10.32;4.80;;;;;;;8.65;100.00;100093.44;4986313;28;20502;-80
2023/01/08 03:37:25;;;;;;;14.20;5.38;;;;;;;8.62;100.00;100096.19;4978898;28;20038;-80
2023/01/08 03:40:04;;;;;;;12.32;5.10;;;;;;;8.66;100.00;100094.22;4982098;28;20427;-80
2023/01/08 03:42:30;;;;;;;11.18;6.03;;;;;;;8.68;100.00;100089.84;4982635;28;20035;-80
2023/01/08 03:44:56;;;;;;;9.95;4.50;;;;;;;8.69;100.00;100087.91;4978848;28;20030;-80
2023/01/08 03:47:24;;;;;;;8.50;4.38;;;;;;;8.63;100.00;100086.63;4983436;28;20491;-80
2023/01/08 03:49:51;;;;;;;13.63;4.38;;;;;;;8.68;100.00;100089.84;4985146;28;20023;-80
2023/01/08 03:52:25;;;;;;;11.23;4.72;;;;;;;8.69;100.00;100094.28;4984033;28;20038;-80
2023/01/08 03:54:50;;;;;;;8.23;3.95;;;;;;;8.70;100.00;100093.06;4990707;28;20034;-81
2023/01/08 03:57:16;;;;;;;12.93;5.93;;;;;;;8.63;100.00;100084.63;4985330;28;20034;-80
2023/01/08 03:59:41;;;;;;;9.98;4.25;;;;;;;8.61;100.00;100098.16;4981884;28;20394;-80
2023/01/08 04:02:08;;;;;;;4.47;3.40;;;;;;;8.69;100.00;100091.47;4983807;28;20034;-80
2023/01/08 04:04:33;;;;;;;10.35;5.63;;;;;;;8.66;100.00;100097.81;4997391;28;20482;-80
2023/01/08 04:06:59;;;;;;;5.82;3.50;;;;;;;8.74;100.00;100088.31;4980337;28;20034;-80
2023/01/08 04:09:24;;;;;;;6.85;3.70;;;;;;;8.65;100.00;100089.84;4997470;28;20092;-81
2023/01/08 04:11:49;;;;;;;6.95;4.18;;;;;;;8.71;100.00;100091.09;4984720;28;20441;-80
2023/01/08 04:14:15;;;;;;;10.50;4.30;;;;;;;8.61;100.00;100094.59;4982711;28;20022;-80
2023/01/08 04:16:40;;;;;;;12.25;4.28;;;;;;;8.66;100.00;100069.91;4980267;28;20569;-81
2023/01/08 04:19:05;;;;;;;6.85;3.53;;;;;;;8.59;100.00;100078.22;4981692;28;20511;-80
2023/01/08 04:21:31;;;;;;;9.20;4.45;;;;;;;8.49;100.00;100081.72;4980167;28;22027;-80
2023/01/08 04:23:56;;;;;;;9.10;3.33;;;;;;;8.50;100.00;100077.75;5003257;28;20038;-81
2023/01/08 04:26:21;;;;;;;9.48;4.30;;;;;;;8.51;100.00;100082.13;4986905;28;20120;-80
2023/01/08 04:28:47;;;;;;;6.65;4.32;;;;;;;8.58;100.00;100079.44;4985038;28;21483;-81
2023/01/08 04:31:12;;;;;;;11.10;4.05;;;;;;;8.54;100.00;100067.44;4996544;28;20045;-81
2023/01/08 04:33:38;;;;;;;6.57;3.67;;;;;;;8.56;100.00;100065.06;4985087;28;20077;-81
2023/01/08 04:36:04;;;;;;;7.03;4.22;;;;;;;8.57;100.00;100052.69;4998218;28;20026;-81
2023/01/08 04:38:29;;;;;;;6.05;3.75;;;;;;;8.57;100.00;100066.66;4980633;28;20279;-80
2023/01/08 04:40:57;;;;;;;11.23;4.40;;;;;;;8.50;100.00;100052.66;4987088;28;20045;-80
2023/01/08 04:43:22;;;;;;;8.88;4.43;;;;;;;8.56;100.00;100051.13;4981188;28;20034;-80
2023/01/08 04:45:47;;;;;;;18.83;4.72;;;;;;;8.53;100.00;100043.50;4984476;28;20040;-80
2023/01/08 04:48:13;;;;;;;10.07;4.13;;;;;;;8.54;100.00;100034.75;4979748;28;20446;-80
2023/01/08 04:50:38;;;;;;;11.57;4.68;;;;;;;8.57;100.00;100043.53;4997292;28;20030;-80
2023/01/08 04:53:03;;;;;;;8.02;4.63;;;;;;;8.47;100.00;100045.03;4993392;28;20117;-80
2023/01/08 04:55:29;;;;;;;8.15;5.03;;;;;;;8.49;100.00;100039.88;4979821;28;20117;-80
2023/01/08 04:57:54;;;;;;;8.63;4.95;;;;;;;8.45;100.00;100030.66;4983413;28;20065;-81
2023/01/08 05:00:19;;;;;;;9.32;4.60;;;;;;;8.43;100.00;100033.88;4983446;28;20030;-80
2023/01/08 05:02:45;;;;;;;8.18;4.28;;;;;;;8.43;100.00;100044.19;4981287;28;20034;-80
2023/01/08 05:05:10;;;;;;;13.13;6.25;;;;;;;8.44;100.00;100045.81;4979704;28;20030;-80
2023/01/08 05:07:37;;;;;;;12.10;5.10;;;;;;;8.50;100.00;100041.50;4988145;28;20076;-81
2023/01/08 05:10:03;;;;;;;13.73;6.22;;;;;;;8.54;100.00;100022.81;4983896;28;20541;-81
2023/01/08 05:12:28;;;;;;;11.45;4.72;;;;;;;8.36;100.00;100017.00;4982212;28;20026;-81
2023/01/08 05:14:54;;;;;;;7.53;5.03;;;;;;;8.37;100.00;100035.38;4982155;28;20070;-80
2023/01/08 05:17:19;;;;;;;12.90;5.25;;;;;;;8.35;100.00;100048.88;4994032;28;20058;-80
2023/01/08 05:19:44;;;;;;;11.85;5.07;;;;;;;8.38;100.00;100048.09;5002214;28;20138;-80
2023/01/08 05:22:11;;;;;;;18.25;5.95;;;;;;;8.47;100.00;100053.41;4989878;28;20061;-80
2023/01/08 05:24:36;;;;;;;8.73;5.18;;;;;;;8.39;100.00;100049.72;4990586;28;20028;-80
2023/01/08 05:27:01;;;;;;;16.10;4.90;;;;;;;8.29;100.00;100039.25;4984712;28;20038;-80
2023/01/08 05:29:27;;;;;;;10.35;4.75;;;;;;;8.33;100.00;100028.94;4986682;28;20121;-80
2023/01/08 05:31:52;;;;;;;13.45;4.55;;;;;;;8.42;100.00;100021.09;4984162;28;20104;-80
2023/01/08 05:34:17;;;;;;;7.30;4.13;;;;;;;8.33;100.00;100017.78;4987527;28;20569;-80
2023/01/08 05:36:43;;;;;;;9.38;4.68;;;;;;;8.41;100.00;100027.03;4983897;28;20410;-80
2023/01/08 05:39:08;;;;;;;9.27;4.50;;;;;;;8.45;100.00;100036.25;4980629;28;20114;-80
2023/01/08 05:41:34;;;;;;;8.05;4.30;;;;;;;8.42;100.00;100042.59;4985528;28;20062;-80
2023/01/08 05:43:59;;;;;;;14.15;4.35;;;;;;;8.40;100.00;100042.16;4985578;28;21229;-80
2023/01/08 05:46:25;;;;;;;10.85;4.00;;;;;;;8.37;100.00;100040.13;4983817;28;20128;-81
2023/01/08 05:48:50;;;;;;;11.25;4.32;;;;;;;8.42;100.00;100035.03;5001242;28;20022;-80
2023/01/08 05:51:15;;;;;;;11.27;4.80;;;;;;;8.44;100.00;100029.09;4986653;28;20618;-80
2023/01/08 05:53:41;;;;;;;10.48;4.00;;;;;;;8.42;100.00;100028.66;4980204;28;20692;-80
2023/01/08 05:56:08;;;;;;;10.10;4.00;;;;;;;8.40;100.00;100031.00;4992037;28;20038;-80
2023/01/08 05:58:34;;;;;;;11.10;3.35;;;;;;;8.30;100.00;100019.34;4991744;28;20112;-81
2023/01/08 06:01:02;;;;;;;8.75;3.53;;;;;;;8.29;100.00;100023.34;4969348;28;20027;-81
2023/01/08 06:03:27;;;;;;;5.55;2.88;;;;;;;8.30;100.00;100018.53;4980846;28;20073;-80
2023/01/08 06:05:57;;;;;;;16.13;3.30;;;;;;;8.27;100.00;100022.91;5000848;28;20045;-80
2023/01/08 06:08:22;;;;;;;11.30;3.10;;;;;;;8.25;100.00;100028.06;4983960;28;20660;-80
2023/01/08 06:10:48;;;;;;;21.83;4.00;;;;;;;8.24;100.00;100037.63;4976675;28;20027;-80
2023/01/08 06:13:13;;;;;;;13.48;3.60;;;;;;;8.34;100.00;100025.75;4984198;28;20399;-80
2023/01/08 06:15:39;;;;;;;9.90;3.20;;;;;;;8.33;100.00;100026.16;4984708;28;20050;-80
2023/01/08 06:18:04;;;;;;;13.50;3.63;;;;;;;8.32;100.00;100032.91;4978319;28;20391;-80
2023/01/08 06:20:29;;;;;;;7.28;2.67;;;;;;;8.18;100.00;100030.78;4985595;28;20030;-80
2023/01/08 06:22:55;;;;;;;12.38;3.17;;;;;;;8.25;100.00;100039.22;4980246;28;20037;-81
2023/01/08 06:25:20;;;;;;;11.02;3.10;;;;;;;8.18;100.00;100018.81;4988990;28;20081;-80
2023/01/08 06:27:52;;;;;;;11.30;4.10;;;;;;;8.25;100.00;100022.50;4975219;28;20106;-80
2023/01/08 06:30:18;;;;;;;10.07;2.75;;;;;;;8.32;100.00;100033.69;4982048;28;20463;-80
2023/01/08 06:32:43;;;;;;;16.00;2.97;;;;;;;8.12;100.00;100035.09;4983598;28;20058;-80
2023/01/08 06:35:09;;;;;;;10.05;3.55;;;;;;;8.07;100.00;100035.44;4981243;28;20505;-80
2023/01/08 06:37:34;;;;;;;11.40;3.35;;;;;;;8.03;100.00;100032.63;4980516;28;20452;-81
2023/01/08 06:39:59;;;;;;;12.57;3.67;;;;;;;8.14;100.00;100030.75;4976932;28;20398;-80
2023/01/08 06:42:25;;;;;;;6.80;3.05;;;;;;;8.04;100.00;100041.78;4983677;28;20052;-80
2023/01/08 06:44:50;;;;;;;12.48;3.20;;;;;;;8.21;100.00;100032.00;4981468;28;20030;-80
2023/01/08 06:47:15;;;;;;;13.80;3.17;;;;;;;8.19;100.00;100037.97;4976144;28;20423;-80
2023/01/08 06:49:41;;;;;;;13.00;3.47;;;;;;;8.23;100.00;100040.78;4988043;28;20031;-80
2023/01/08 06:52:06;;;;;;;10.27;3.08;;;;;;;8.03;100.00;100042.94;4984659;28;20044;-80
2023/01/08 06:54:31;;;;;;;13.45;2.78;;;;;;;7.99;100.00;100036.53;4979601;28;20089;-80
2023/01/08 06:56:57;;;;;;;13.73;2.95;;;;;;;7.97;100.00;100044.47;4989139;28;20366;-81
2023/01/08 06:59:22;;;;;;;13.43;3.78;;;;;;;7.89;100.00;100043.59;4985745;28;20057;-80
2023/01/08 07:01:48;;;;;;;15.20;5.28;;;;;;;7.95;100.00;100042.09;4988061;28;20030;-80
2023/01/08 07:04:14;;;;;;;12.02;3.65;;;;;;;8.05;100.00;100051.75;4988581;28;20113;-80
2023/01/08 07:06:39;;;;;;;12.23;3.08;;;;;;;7.98;100.00;100040.53;4982995;28;20117;-81
2023/01/08 07:09:04;;;;;;;8.45;3.38;;;;;;;7.92;100.00;100049.19;4981586;28;20047;-80
2023/01/08 07:11:30;;;;;;;11.02;4.15;;;;;;;7.89;100.00;100044.41;4985933;28;20640;-80
2023/01/08 07:13:55;;;;;;;10.50;3.83;;;;;;;7.95;100.00;100056.03;4980519;28;20045;-80
2023/01/08 07:16:21;;;;;;;7.57;2.55;;;;;;;7.94;100.00;100051.63;4983715;28;20026;-80
2023/01/08 07:18:46;;;;;;;12.30;3.50;;;;;;;7.84;100.00;100052.28;4979625;28;20467;-80
2023/01/08 07:21:12;;;;;;;9.10;3.10;;;;;;;7.80;100.00;100045.88;4984148;28;20382;-80
2023/01/08 07:23:37;;;;;;;9.63;2.63;;;;;;;7.90;100.00;100059.13;4977294;28;20494;-80
2023/01/08 07:26:06;;;;;;;10.85;3.17;;;;;;;7.75;100.00;100060.94;5005629;28;20398;-80
2023/01/08 07:28:32;;;;;;;13.77;3.30;;;;;;;7.76;100.00;100061.72;4985343;28;20030;-80
2023/01/08 07:31:02;;;;;;;9.05;2.67;;;;;;;7.71;100.00;100051.72;4982483;28;20042;-80
2023/01/08 07:33:27;;;;;;;10.35;3.42;;;;;;;7.66;100.00;100046.50;4976691;28;20101;-80
2023/01/08 07:35:54;;;;;;;8.43;3.92;;;;;;;7.84;100.00;100050.31;4992402;28;20180;-80
2023/01/08 07:38:20;;;;;;;7.88;2.67;;;;;;;7.85;100.00;100053.91;4973467;28;20032;-80
2023/01/08 07:40:46;;;;;;;8.90;2.75;;;;;;;7.67;100.00;100048.94;4977710;28;20117;-80
2023/01/08 07:43:11;;;;;;;7.78;2.42;;;;;;;7.64;100.00;100048.88;4981085;28;20185;-80
2023/01/08 07:45:37;;;;;;;7.97;2.90;;;;;;;7.78;100.00;100054.63;4983559;28;20046;-80
2023/01/08 07:48:04;;;;;;;12.82;2.85;;;;;;;7.75;100.00;100055.38;4986669;28;20030;-80
2023/01/08 07:50:29;;;;;;;9.10;2.60;;;;;;;7.66;100.00;100043.72;4983629;28;20042;-80
2023/01/08 07:52:59;;;;;;;13.23;4.47;;;;;;;7.75;100.00;100049.78;4978171;28;20036;-80
2023/01/08 07:55:25;;;;;;;16.98;3.33;;;;;;;7.63;100.00;100041.69;4989227;28;20026;-80
2023/01/08 07:57:50;;;;;;;11.55;3.38;;;;;;;7.73;100.00;100046.59;4991277;28;20022;-80
2023/01/08 08:00:16;;;;;;;11.48;2.38;;;;;;;7.68;100.00;100044.16;4988693;28;20053;-80
2023/01/08 08:02:41;;;;;;;13.95;3.47;;;;;;;7.41;100.00;100035.84;4975305;28;20109;-80
2023/01/08 08:05:07;;;;;;;10.18;2.78;;;;;;;7.40;100.00;100038.97;4973566;28;20054;-80
2023/01/08 08:07:32;;;;;;;15.88;3.05;;;;;;;7.44;100.00;100026.75;4981138;28;20441;-80
2023/01/08 08:09:57;;;;;;;15.48;3.10;;;;;;;7.45;100.00;100030.31;4972785;28;20085;-80
2023/01/08 08:12:23;;;;;;;18.02;4.40;;;;;;;7.37;100.00;100015.50;4977524;28;20027;-80
2023/01/08 08:14:48;;;;;;;9.43;3.10;;;;;;;7.34;100.00;100016.25;4977808;28;21290;-81
2023/01/08 08:17:13;;;;;;;13.23;3.70;;;;;;;7.50;100.00;100014.06;4977982;28;20033;-80
2023/01/08 08:19:42;;;;;;;10.55;2.58;;;;;;;7.47;100.00;100012.06;4976254;28;20076;-80
2023/01/08 08:22:08;;;;;;;10.95;2.85;;;;;;;7.48;100.00;100008.09;4978098;28;20042;-80
2023/01/08 08:24:33;;;;;;;12.50;2.70;;;;;;;7.45;100.00;99994.91;4989101;28;20140;-80
2023/01/08 08:26:58;;;;;;;8.48;3.35;;;;;;;7.37;100.00;100001.56;4986668;28;20113;-80
2023/01/08 08:29:24;;;;;;;11.38;4.63;;;;;;;7.40;100.00;99988.88;4982078;28;20022;-80
2023/01/08 08:31:49;;;;;;;11.07;3.08;;;;;;;7.37;100.00;99996.00;4984026;28;20026;-80
2023/01/08 08:34:14;;;;;;;6.82;3.20;;;;;;;7.39;100.00;99993.66;4983265;28;20030;-80
2023/01/08 08:36:40;;;;;;;11.60;2.38;;;;;;;7.38;100.00;99986.50;4986044;28;20121;-80
2023/01/08 08:39:05;;;;;;;7.97;2.78;;;;;;;7.40;100.00;100000.84;4975145;28;20035;-80
2023/01/08 08:41:30;;;;;;;12.63;3.50;;;;;;;7.16;100.00;99998.50;5008421;28;20496;-80
2023/01/08 08:43:56;;;;;;;17.83;5.00;;;;;;;7.24;100.00;99986.28;4984924;28;20487;-81
2023/01/08 08:46:21;;;;;;;8.68;2.78;;;;;;;7.31;100.00;99992.75;4997111;28;20041;-80
2023/01/08 08:48:47;;;;;;;13.32;3.45;;;;;;;7.29;100.00;99999.88;4995975;28;20031;-80
2023/01/08 08:51:13;;;;;;;11.85;4.30;;;;;;;7.31;100.00;100000.28;4985239;28;20065;-80
2023/01/08 08:53:38;;;;;;;12.85;2.60;;;;;;;7.35;100.00;100001.16;4975636;28;20399;-80
2023/01/08 08:56:04;;;;;;;22.55;3.30;;;;;;;7.21;100.00;99996.22;4977480;28;20391;-80
2023/01/08 08:58:29;;;;;;;9.65;2.70;;;;;;;7.44;100.00;99993.34;4979486;28;20033;-80
2023/01/08 09:01:00;;;;;;;10.75;3.50;;;;;;;7.30;100.00;99995.91;4978275;28;20125;-81
2023/01/08 09:03:25;;;;;;;13.88;3.72;;;;;;;7.22;100.00;99999.78;4978257;28;20026;-80
2023/01/08 09:05:51;;;;;;;13.43;3.10;;;;;;;7.11;100.00;99992.09;4978553;28;20068;-80
2023/01/08 09:08:16;;;;;;;13.52;2.92;;;;;;;7.24;100.00;99992.66;4995638;28;20028;-81
2023/01/08 09:10:42;;;;;;;15.07;3.85;;;;;;;7.17;100.00;99986.19;4982371;28;20523;-80
2023/01/08 09:13:08;;;;;;;10.57;2.72;;;;;;;7.34;100.00;99996.78;4984891;28;20378;-80
2023/01/08 09:15:36;;;;;;;11.65;2.65;;;;;;;7.36;100.00;99993.59;4973812;28;20130;-80
2023/01/08 09:18:01;;;;;;;12.13;3.08;;;;;;;7.37;100.00;99990.44;4979322;28;20035;-80
2023/01/08 09:20:26;;;;;;;14.88;3.53;;;;;;;7.42;100.00;100009.59;4978925;28;20078;-80
2023/01/08 09:22:52;;;;;;;11.93;2.63;;;;;;;7.36;100.00;99999.97;4980891;28;20113;-80
2023/01/08 09:25:18;;;;;;;12.85;2.75;;;;;;;7.39;100.00;99999.22;4985576;28;20105;-81
2023/01/08 09:27:44;;;;;;;20.15;4.28;;;;;;;7.29;100.00;99999.88;4983533;28;20058;-80
2023/01/08 09:30:10;;;;;;;14.95;2.70;;;;;;;7.36;100.00;100010.28;5000951;28;20029;-80
2023/01/08 09:32:35;;;;;;;16.60;2.70;;;;;;;7.43;100.00;99997.28;4980927;28;20039;-80
2023/01/08 09:35:01;;;;;;;14.45;3.13;;;;;;;7.40;100.00;99988.88;4990836;28;20045;-81
2023/01/08 09:37:26;;;;;;;12.70;3.10;;;;;;;7.42;100.00;100004.03;4991663;28;20050;-81
2023/01/08 09:39:51;;;;;;;14.73;3.78;;;;;;;7.42;100.00;100004.03;4993988;28;20097;-80
2023/01/08 09:42:24;;;;;;;15.93;2.70;;;;;;;7.47;100.00;99997.34;4996732;28;20041;-80
2023/01/08 09:44:51;;;;;;;;;;;;;;;7.49;100.00;100003.31;4987864;28;20579;-81
2023/01/08 09:47:30;;;;;;;21.20;4.00;;;;;;;7.45;100.00;99996.91;4983934;28;20328;-80
2023/01/08 09:50:01;;;;;;;14.13;3.25;;;;;;;7.47;100.00;99995.34;5002976;28;20042;-80
2023/01/08 09:52:28;;;;;;;8.37;2.17;;;;;;;7.48;100.00;99991.41;4994552;28;20029;-80
2023/01/08 09:54:54;;;;;;;11.23;2.85;;;;;;;7.56;100.00;99999.81;4989537;28;20038;-80
2023/01/08 09:57:21;;;;;;;13.15;3.25;;;;;;;7.56;100.00;99997.03;4981337;28;20097;-81
2023/01/08 09:59:48;;;;;;;10.25;2.38;;;;;;;7.63;100.00;99985.97;5015206;28;20025;-80
2023/01/08 10:02:15;;;;;;;21.85;3.63;;;;;;;7.60;100.00;99983.97;4989502;28;20406;-80
2023/01/08 10:04:42;;;;;;;15.77;3.28;;;;;;;7.60;100.00;99993.13;4986271;28;20042;-80
2023/01/08 10:07:20;;;;;;;13.82;2.65;;;;;;;7.52;100.00;99991.41;4989907;28;20050;-80
2023/01/08 10:09:48;;;;;;;10.63;2.25;;;;;;;7.58;100.00;99994.69;4988320;28;20138;-80
2023/01/08 10:12:15;;;;;;;15.43;3.72;;;;;;;7.70;100.00;99986.06;4992696;28;20035;-80
2023/01/08 10:14:48;;;;;;;7.93;3.17;;;;;;;7.64;100.00;99988.38;4990210;28;20081;-80
2023/01/08 10:17:47;;;;;;;19.40;3.60;;;;;;;7.68;100.00;99994.00;4983588;28;20037;-80
2023/01/08 10:20:17;;;;;;;10.20;2.63;;;;;;;7.69;100.00;99996.41;4982071;28;20045;-80
2023/01/08 10:22:43;;;;;;;23.88;5.70;;;;;;;7.70;100.00;99984.09;4984319;28;20026;-80
2023/01/08 10:25:12;;;;;;;17.08;3.75;;;;;;;7.73;100.00;99983.31;4989474;28;20385;-80
2023/01/08 10:27:58;;;;;;;10.15;2.65;;;;;;;7.70;100.00;99986.06;4994454;28;20022;-80
2023/01/08 10:30:29;;;;;;;21.23;3.83;;;;;;;7.77;100.00;99977.00;4989832;28;20038;-80
2023/01/08 10:32:56;;;;;;;9.65;2.40;;;;;;;7.81;100.00;99981.41;4987500;28;20033;-80
2023/01/08 10:35:32;;;;;;;15.63;2.58;;;;;;;7.80;100.00;99970.66;4975872;28;20033;-80
2023/01/08 10:37:57;;;;;;;25.50;4.68;;;;;;;7.91;100.00;99964.03;5002582;28;20026;-80
2023/01/08 10:40:29;;;;;;;16.90;3.30;;;;;;;7.89;100.00;99971.97;4979464;28;20042;-80
2023/01/08 10:42:57;;;;;;;17.03;4.30;;;;;;;7.92;100.00;99968.38;4982535;28;20030;-80
2023/01/08 10:45:25;;;;;;;27.52;6.22;;;;;;;7.91;100.00;99966.81;4983333;28;20490;-81
2023/01/08 10:47:56;;;;;;;13.25;3.17;;;;;;;7.97;100.00;99964.47;4977870;28;20050;-80
2023/01/08 10:50:32;;;;;;;9.77;2.67;;;;;;;8.04;100.00;99972.91;4983436;28;20046;-80
2023/01/08 10:53:03;;;;;;;21.27;4.60;;;;;;;8.04;100.00;99966.53;4978277;28;20073;-80
2023/01/08 10:55:31;;;;;;;13.15;3.63;;;;;;;8.01;100.00;99959.75;4983218;28;20030;-80
2023/01/08 10:57:59;;;;;;;14.88;3.15;;;;;;;8.10;100.00;99949.06;4979239;28;20426;-80
2023/01/08 11:00:28;;;;;;;15.88;3.88;;;;;;;8.10;100.00;99956.66;4980339;28;20593;-81
2023/01/08 11:02:55;;;;;;;11.43;3.00;;;;;;;8.12;100.00;99943.91;4976929;28;20030;-80
2023/01/08 11:05:30;;;;;;;17.77;4.95;;;;;;;8.08;100.00;99939.50;4984064;28;20053;-81
2023/01/08 11:07:57;;;;;;;11.23;4.00;;;;;;;8.09;100.00;99939.09;4980753;28;20026;-80
2023/01/08 11:10:26;;;;;;;12.20;3.38;;;;;;;8.13;100.00;99925.19;4983895;28;20484;-80
2023/01/08 11:12:57;;;;;;;19.48;4.00;;;;;;;8.14;100.00;99924.03;4997737;28;20045;-80
2023/01/08 11:15:34;;;;;;;12.93;3.60;;;;;;;8.22;100.00;99922.09;4983009;28;21417;-80
2023/01/08 11:18:24;;;;;;;13.30;3.10;;;;;;;8.13;100.00;99925.19;4978758;28;20040;-80
2023/01/08 11:20:51;;;;;;;15.73;3.65;;;;;;;8.18;100.00;99921.25;4980749;28;20057;-80
2023/01/08 11:23:21;;;;;;;14.75;4.22;;;;;;;8.06;100.00;99911.22;4981368;28;20023;-80
2023/01/08 11:26:10;;;;;;;17.23;4.78;;;;;;;8.17;100.00;99914.09;4978432;28;20498;-81